SIA125 WMKK-WSSS
Flight info
| Callsign | SIA125 |
|---|---|
| Flight time | N/A |
| Altitude | 21000 |
| Route | RUSBU1D RUSBU Y511 TOPOR A464 ARAMA DCT TEBUN TEBUN1A |
| Aircraft | A359/H-SDE2E3GHIJ3J4J5LM1ORWXY/LB1D1 |
Departure
| Time | 2026-04-30 15:12 |
|---|---|
| Airport | Kuala Lumpur International Airport (WMKK) |
Arrival
| Time | N/A |
|---|---|
| Airport | Singapore Changi Airport (WSSS) |
| Time | Latitude | Longitude | Altitude | Speed | Heading |
|---|---|---|---|---|---|
| 2026-04-30 14:52 | 2.74962 | 101.71346 | 79 ft | 0 kts | 236° |
| 2026-04-30 15:01 | 2.74969 | 101.71355 | 84 ft | 2 kts | 226° |
| 2026-04-30 15:02 | 2.74980 | 101.71367 | 85 ft | 2 kts | 219° |
| 2026-04-30 15:02 | 2.74994 | 101.71376 | 83 ft | 2 kts | 204° |
| 2026-04-30 15:03 | 2.75042 | 101.71375 | 84 ft | 2 kts | 154° |
| 2026-04-30 15:03 | 2.75055 | 101.71368 | 84 ft | 0 kts | 148° |
| 2026-04-30 15:05 | 2.75021 | 101.71416 | 85 ft | 6 kts | 72° |
| 2026-04-30 15:06 | 2.75088 | 101.71522 | 83 ft | 12 kts | 56° |
| 2026-04-30 15:06 | 2.75189 | 101.71673 | 69 ft | 10 kts | 56° |
| 2026-04-30 15:07 | 2.75113 | 101.71791 | 68 ft | 14 kts | 147° |
| 2026-04-30 15:07 | 2.74938 | 101.71908 | 88 ft | 16 kts | 146° |
| 2026-04-30 15:08 | 2.74757 | 101.72033 | 88 ft | 9 kts | 131° |
| 2026-04-30 15:08 | 2.74772 | 101.72097 | 88 ft | 0 kts | 56° |
| 2026-04-30 15:10 | 2.74788 | 101.72120 | 88 ft | 9 kts | 56° |
| 2026-04-30 15:11 | 2.74913 | 101.72157 | 88 ft | 0 kts | 325° |
| 2026-04-30 15:11 | 2.75256 | 101.71924 | 70 ft | 95 kts | 326° |
| 2026-04-30 15:12 | 2.77917 | 101.70150 | 1560 ft | 168 kts | 327° |
| 2026-04-30 15:13 | 2.80100 | 101.68787 | 2409 ft | 204 kts | 338° |
| 2026-04-30 15:14 | 2.86504 | 101.66556 | 4112 ft | 266 kts | 342° |
| 2026-04-30 15:14 | 2.91806 | 101.66642 | 6097 ft | 266 kts | 39° |
| 2026-04-30 15:16 | 2.94418 | 101.75184 | 9150 ft | 280 kts | 114° |
| 2026-04-30 15:17 | 2.88613 | 101.80983 | 10769 ft | 320 kts | 135° |
| 2026-04-30 15:18 | 2.79892 | 101.89150 | 12452 ft | 355 kts | 135° |
| 2026-04-30 15:19 | 2.75054 | 101.93696 | 13617 ft | 362 kts | 134° |